createdAt,value
2022-10-06T00:00:10.378Z,2.10
2022-10-06T00:02:19.955Z,3.20
2022-10-06T00:04:28.497Z,2.67
2022-10-06T00:06:36.976Z,2.70
2022-10-06T00:08:46.030Z,3.00
2022-10-06T00:10:56.307Z,3.53
2022-10-06T00:13:04.834Z,2.37
2022-10-06T00:15:16.312Z,3.47
2022-10-06T00:17:24.839Z,2.20
2022-10-06T00:19:33.335Z,2.13
2022-10-06T00:21:41.805Z,1.70
2022-10-06T00:23:50.297Z,1.90
2022-10-06T00:25:59.342Z,2.13
2022-10-06T00:28:07.963Z,2.50
2022-10-06T00:30:18.777Z,1.80
2022-10-06T00:32:27.251Z,3.53
2022-10-06T00:34:36.621Z,3.60
2022-10-06T00:36:45.093Z,2.37
2022-10-06T00:38:53.489Z,2.47
2022-10-06T00:41:02.167Z,1.93
2022-10-06T00:43:25.449Z,2.53
2022-10-06T00:45:36.807Z,5.67
2022-10-06T00:47:46.103Z,2.40
2022-10-06T00:49:56.640Z,1.60
2022-10-06T00:52:08.428Z,3.00
2022-10-06T00:54:17.607Z,2.60
2022-10-06T00:56:26.231Z,1.97
2022-10-06T00:58:34.979Z,2.27
2022-10-06T01:00:46.259Z,1.70
2022-10-06T01:02:57.842Z,2.33
2022-10-06T01:05:07.590Z,2.57
2022-10-06T01:07:16.139Z,2.37
2022-10-06T01:09:25.570Z,5.37
2022-10-06T01:11:35.190Z,2.00
2022-10-06T01:13:44.619Z,2.67
2022-10-06T01:15:56.831Z,3.53
2022-10-06T01:18:07.659Z,1.60
2022-10-06T01:20:17.584Z,2.00
2022-10-06T01:22:29.097Z,2.03
2022-10-06T01:24:37.930Z,4.80
2022-10-06T01:26:47.770Z,1.73
2022-10-06T01:28:56.387Z,2.77
2022-10-06T01:31:05.029Z,2.87
2022-10-06T01:33:13.810Z,2.50
2022-10-06T01:35:26.616Z,2.57
2022-10-06T01:37:36.671Z,2.93
2022-10-06T01:39:45.324Z,2.53
2022-10-06T01:41:53.834Z,2.47
2022-10-06T01:44:02.344Z,2.60
2022-10-06T01:46:10.897Z,3.50
2022-10-06T01:48:22.474Z,2.20
2022-10-06T01:50:31.134Z,3.43
2022-10-06T01:52:41.037Z,2.90
2022-10-06T01:54:49.596Z,2.43
2022-10-06T01:56:58.127Z,4.57
2022-10-06T01:59:06.578Z,3.30
2022-10-06T02:01:15.096Z,3.83
2022-10-06T02:03:23.549Z,3.70
2022-10-06T02:05:32.056Z,3.60
2022-10-06T02:07:41.899Z,2.23
2022-10-06T02:09:50.382Z,5.10
2022-10-06T02:11:58.918Z,3.10
2022-10-06T02:14:10.801Z,5.30
2022-10-06T02:16:19.355Z,4.20
2022-10-06T02:18:28.494Z,2.57
2022-10-06T02:20:37.119Z,3.27
2022-10-06T02:22:47.309Z,4.67
2022-10-06T02:24:55.867Z,2.67
2022-10-06T02:27:05.361Z,2.87
2022-10-06T02:29:13.860Z,2.40
2022-10-06T02:31:22.459Z,3.10
2022-10-06T02:33:30.974Z,2.77
2022-10-06T02:35:45.610Z,3.97
2022-10-06T02:37:55.472Z,3.30
2022-10-06T02:40:03.964Z,5.50
2022-10-06T02:42:12.465Z,2.80
2022-10-06T02:44:21.561Z,5.67
2022-10-06T02:46:31.585Z,2.20
2022-10-06T02:48:40.779Z,4.10
2022-10-06T02:50:54.732Z,2.50
2022-10-06T02:53:06.923Z,2.20
2022-10-06T02:55:15.468Z,2.40
2022-10-06T02:57:23.962Z,3.20
2022-10-06T02:59:34.049Z,3.43
2022-10-06T03:01:42.662Z,3.57
2022-10-06T03:03:51.462Z,5.83
2022-10-06T03:06:03.448Z,5.73
2022-10-06T03:08:15.728Z,5.23
2022-10-06T03:10:24.229Z,4.03
2022-10-06T03:12:32.949Z,4.90
2022-10-06T03:14:41.443Z,4.37
2022-10-06T03:16:50.442Z,3.47
2022-10-06T03:18:58.927Z,3.93
2022-10-06T03:21:07.481Z,3.47
2022-10-06T03:23:17.528Z,4.23
2022-10-06T03:25:26.080Z,4.07
2022-10-06T03:27:34.716Z,4.97
2022-10-06T03:29:43.275Z,2.43
2022-10-06T03:31:51.803Z,4.43
2022-10-06T03:34:00.267Z,3.13
2022-10-06T03:36:12.799Z,5.40
2022-10-06T03:38:22.613Z,3.10
2022-10-06T03:40:31.174Z,4.20
2022-10-06T03:42:39.680Z,4.83
2022-10-06T03:44:48.170Z,2.87
2022-10-06T03:46:56.811Z,5.93
2022-10-06T03:49:05.819Z,2.50
2022-10-06T03:51:15.639Z,2.60
2022-10-06T03:53:28.185Z,9.70
2022-10-06T03:55:36.664Z,4.20
2022-10-06T03:57:45.140Z,3.60
2022-10-06T03:59:53.623Z,2.90
2022-10-06T04:02:02.275Z,4.93
2022-10-06T04:04:11.493Z,5.40
2022-10-06T04:06:21.271Z,4.13
2022-10-06T04:08:32.090Z,4.53
2022-10-06T04:10:40.746Z,3.17
2022-10-06T04:12:49.231Z,3.60
2022-10-06T04:15:00.142Z,4.60
2022-10-06T04:17:08.799Z,6.50
2022-10-06T04:19:18.363Z,7.03
2022-10-06T04:21:27.549Z,5.77
2022-10-06T04:23:37.677Z,3.73
2022-10-06T04:25:46.153Z,4.40
2022-10-06T04:27:54.764Z,4.37
2022-10-06T04:30:03.248Z,6.73
2022-10-06T04:32:11.638Z,6.37
2022-10-06T04:34:21.041Z,4.67
2022-10-06T04:36:30.326Z,4.10
2022-10-06T04:38:40.120Z,5.13
2022-10-06T04:40:48.546Z,6.90
2022-10-06T04:42:57.535Z,3.57
2022-10-06T04:45:06.322Z,2.53
2022-10-06T04:47:14.726Z,2.20
2022-10-06T04:49:23.407Z,2.30
2022-10-06T04:51:31.889Z,2.80
2022-10-06T04:53:44.243Z,3.63
2022-10-06T04:55:59.953Z,3.37
2022-10-06T04:58:08.453Z,3.67
2022-10-06T05:00:26.882Z,1.80
2022-10-06T05:02:36.382Z,2.77
2022-10-06T05:04:44.911Z,2.93
2022-10-06T05:06:53.391Z,2.13
2022-10-06T05:09:04.305Z,3.30
2022-10-06T05:11:15.168Z,1.93
2022-10-06T05:13:26.801Z,2.43
2022-10-06T05:15:35.248Z,3.80
2022-10-06T05:17:43.660Z,1.83
2022-10-06T05:19:52.078Z,2.60
2022-10-06T05:22:00.491Z,2.57
2022-10-06T05:24:10.401Z,3.50
2022-10-06T05:26:20.511Z,1.53
2022-10-06T05:28:30.222Z,2.00
2022-10-06T05:30:39.036Z,1.33
2022-10-06T05:32:50.461Z,2.00
2022-10-06T05:34:58.970Z,1.63
2022-10-06T05:37:07.453Z,1.87
2022-10-06T05:39:17.308Z,1.00
2022-10-06T05:41:26.733Z,1.20
2022-10-06T05:43:36.130Z,2.23
2022-10-06T05:45:54.412Z,1.20
2022-10-06T05:48:02.866Z,3.80
2022-10-06T05:50:11.482Z,1.60
2022-10-06T05:52:19.959Z,2.43
2022-10-06T05:54:30.097Z,1.03
2022-10-06T05:56:39.658Z,3.13
2022-10-06T05:58:48.666Z,1.13
2022-10-06T06:00:57.183Z,1.57
2022-10-06T06:03:06.471Z,1.83
2022-10-06T06:05:15.363Z,1.27
2022-10-06T06:07:23.763Z,2.53
2022-10-06T06:09:33.637Z,2.07
2022-10-06T06:11:42.982Z,1.13
2022-10-06T06:13:51.387Z,2.03
2022-10-06T06:16:04.365Z,1.10
2022-10-06T06:18:14.331Z,1.13
2022-10-06T06:20:22.716Z,4.20
2022-10-06T06:22:31.150Z,3.23
2022-10-06T06:24:41.083Z,1.27
2022-10-06T06:26:49.534Z,1.53
2022-10-06T06:29:04.093Z,1.33
2022-10-06T06:31:19.058Z,2.37
2022-10-06T06:33:28.441Z,2.30
2022-10-06T06:35:38.500Z,2.30
2022-10-06T06:37:48.919Z,4.47
2022-10-06T06:39:58.931Z,2.77
2022-10-06T06:42:08.642Z,1.83
2022-10-06T06:44:17.859Z,3.63
2022-10-06T06:46:27.476Z,2.50
2022-10-06T06:48:38.123Z,3.17
2022-10-06T06:50:46.941Z,3.43
2022-10-06T06:52:56.231Z,1.67
2022-10-06T06:55:06.533Z,1.10
2022-10-06T06:57:14.979Z,1.80
2022-10-06T06:59:23.386Z,1.93
2022-10-06T07:01:31.839Z,3.20
2022-10-06T07:06:10.002Z,0.97
2022-10-06T07:08:20.971Z,3.67
2022-10-06T07:10:35.428Z,1.37
2022-10-06T07:12:45.430Z,2.80
2022-10-06T07:15:11.370Z,3.30
2022-10-06T07:17:37.606Z,3.60
2022-10-06T07:20:15.189Z,2.63
2022-10-06T07:22:43.318Z,4.67
2022-10-06T07:25:11.850Z,1.37
2022-10-06T07:27:21.795Z,2.27
2022-10-06T07:29:30.236Z,2.97
2022-10-06T07:31:39.296Z,2.00
2022-10-06T07:33:47.762Z,3.33
2022-10-06T07:35:56.304Z,2.73
2022-10-06T07:38:07.957Z,6.50
2022-10-06T07:40:16.743Z,2.30
2022-10-06T07:42:26.670Z,2.47
2022-10-06T07:44:35.503Z,3.30
2022-10-06T07:46:44.287Z,3.17
2022-10-06T07:48:52.790Z,5.20
2022-10-06T07:51:01.977Z,0.83
2022-10-06T07:53:10.475Z,3.50
2022-10-06T07:55:19.143Z,5.83
2022-10-06T07:57:35.329Z,1.93
2022-10-06T07:59:46.779Z,2.33
2022-10-06T08:01:55.453Z,3.90
2022-10-06T08:04:06.870Z,2.30
2022-10-06T08:06:17.105Z,2.80
2022-10-06T08:08:25.673Z,3.50
2022-10-06T08:10:34.312Z,1.73
2022-10-06T08:12:44.359Z,4.60
2022-10-06T08:14:53.109Z,2.63
2022-10-06T08:19:20.854Z,1.60
2022-10-06T08:21:32.100Z,7.03
2022-10-06T08:23:42.497Z,3.50
2022-10-06T08:25:52.325Z,4.50
2022-10-06T08:28:02.092Z,2.47
2022-10-06T08:30:12.549Z,2.57
2022-10-06T08:32:21.010Z,2.83
2022-10-06T08:34:29.235Z,3.33
2022-10-06T08:36:37.965Z,1.57
2022-10-06T08:38:50.578Z,4.50
2022-10-06T08:40:59.634Z,2.30
2022-10-06T08:43:17.462Z,3.50
2022-10-06T08:45:37.646Z,4.03
2022-10-06T08:47:52.552Z,2.73
2022-10-06T08:50:05.584Z,4.17
2022-10-06T08:52:26.676Z,3.53
2022-10-06T08:54:40.001Z,4.30
2022-10-06T08:56:54.513Z,3.70
2022-10-06T08:59:05.737Z,2.13
2022-10-06T09:01:16.713Z,3.17
2022-10-06T09:03:28.615Z,2.57
2022-10-06T09:05:37.734Z,4.27
2022-10-06T09:07:52.490Z,4.00
2022-10-06T09:10:08.608Z,3.10
2022-10-06T09:12:23.032Z,6.70
2022-10-06T09:14:39.179Z,2.73
2022-10-06T09:16:51.358Z,2.57
2022-10-06T09:19:08.836Z,4.67
2022-10-06T09:21:19.120Z,6.23
2022-10-06T09:23:49.413Z,9.00
2022-10-06T09:25:58.378Z,1.57
2022-10-06T09:28:15.657Z,4.57
2022-10-06T09:30:26.294Z,1.90
2022-10-06T09:32:35.678Z,5.30
2022-10-06T09:34:46.756Z,4.30
2022-10-06T09:37:02.152Z,5.30
2022-10-06T09:39:24.864Z,2.20
2022-10-06T09:41:40.160Z,5.93
2022-10-06T09:43:56.698Z,2.67
2022-10-06T09:46:20.581Z,3.50
2022-10-06T09:48:31.144Z,8.83
2022-10-06T09:50:40.928Z,3.00
2022-10-06T09:53:06.011Z,2.47
2022-10-06T09:55:15.210Z,3.70
2022-10-06T09:57:37.983Z,2.50
2022-10-06T09:59:47.463Z,6.17
2022-10-06T10:01:56.661Z,5.00
2022-10-06T10:04:19.945Z,3.50
2022-10-06T10:06:31.080Z,3.20
2022-10-06T10:08:40.037Z,4.50
2022-10-06T10:10:48.776Z,5.60
2022-10-06T10:12:58.750Z,5.27
2022-10-06T10:15:26.360Z,2.07
2022-10-06T10:17:40.746Z,2.60
2022-10-06T10:19:54.857Z,5.07
2022-10-06T10:22:04.957Z,4.53
2022-10-06T10:24:18.767Z,2.70
2022-10-06T10:26:32.175Z,3.87
2022-10-06T10:28:51.762Z,4.10
2022-10-06T10:31:06.422Z,6.53
2022-10-06T10:33:18.239Z,6.13
2022-10-06T10:35:29.739Z,5.37
2022-10-06T10:37:42.221Z,4.30
2022-10-06T10:39:53.288Z,4.10
2022-10-06T10:42:03.769Z,4.20
2022-10-06T10:44:15.963Z,4.07
2022-10-06T10:46:30.932Z,5.67
2022-10-06T10:48:44.829Z,3.73
2022-10-06T10:50:59.720Z,4.30
2022-10-06T10:53:10.980Z,1.23
2022-10-06T10:55:23.522Z,4.77
2022-10-06T10:57:39.808Z,3.13
2022-10-06T11:00:00.446Z,1.70
2022-10-06T11:02:14.673Z,2.87
2022-10-06T11:04:26.323Z,4.20
2022-10-06T11:07:10.417Z,1.57
2022-10-06T11:09:21.270Z,3.60
2022-10-06T11:11:49.875Z,3.53
2022-10-06T11:14:04.794Z,2.93
2022-10-06T11:16:25.503Z,5.03
2022-10-06T11:18:48.209Z,1.90
2022-10-06T11:21:01.538Z,2.37
2022-10-06T11:23:47.234Z,0.97
2022-10-06T11:26:04.982Z,3.27
2022-10-06T11:28:20.143Z,2.60
2022-10-06T11:30:30.601Z,1.30
2022-10-06T11:32:54.488Z,2.30
2022-10-06T11:35:04.071Z,1.43
2022-10-06T11:37:25.010Z,3.57
2022-10-06T11:39:44.652Z,2.73
2022-10-06T11:42:03.226Z,1.73
2022-10-06T11:44:23.725Z,2.77
2022-10-06T11:46:41.314Z,4.03
2022-10-06T11:48:52.628Z,2.00
2022-10-06T11:51:29.021Z,2.03
2022-10-06T11:53:44.210Z,2.43
2022-10-06T11:56:26.293Z,3.20
2022-10-06T11:59:09.905Z,3.63
2022-10-06T12:01:51.732Z,6.00
2022-10-06T12:04:24.502Z,2.23
2022-10-06T12:07:02.480Z,1.87
2022-10-06T12:09:44.731Z,3.13
2022-10-06T12:11:55.142Z,4.20
2022-10-06T12:17:10.606Z,4.10
2022-10-06T12:19:20.957Z,2.57
2022-10-06T12:21:36.426Z,1.93
2022-10-06T12:23:57.204Z,3.20
2022-10-06T12:26:20.063Z,4.60
2022-10-06T12:28:33.037Z,3.03
2022-10-06T12:30:50.643Z,6.67
2022-10-06T12:33:03.736Z,5.67
2022-10-06T12:35:26.308Z,4.20
2022-10-06T12:37:54.713Z,6.33
2022-10-06T12:40:22.755Z,2.53
2022-10-06T12:42:32.595Z,5.33
2022-10-06T12:44:42.392Z,5.17
2022-10-06T12:46:53.499Z,5.17
2022-10-06T12:49:05.517Z,2.33
2022-10-06T12:51:25.712Z,3.50
2022-10-06T12:53:36.715Z,5.80
2022-10-06T12:55:50.075Z,3.50
2022-10-06T12:57:59.435Z,7.13
2022-10-06T13:00:23.887Z,5.00
2022-10-06T13:02:34.073Z,4.50
2022-10-06T13:04:44.306Z,5.53
2022-10-06T13:06:52.935Z,3.27
2022-10-06T13:09:05.014Z,4.30
2022-10-06T13:11:15.033Z,5.80
2022-10-06T13:13:25.025Z,2.77
2022-10-06T13:15:34.927Z,7.70
2022-10-06T13:17:46.740Z,9.33
2022-10-06T13:19:55.882Z,3.33
2022-10-06T13:22:04.847Z,5.97
2022-10-06T13:24:14.707Z,6.07
2022-10-06T13:26:24.615Z,2.43
2022-10-06T13:28:47.579Z,2.20
2022-10-06T13:30:57.219Z,11.47
2022-10-06T13:33:09.949Z,4.07
2022-10-06T13:35:19.330Z,4.50
2022-10-06T13:37:28.571Z,8.10
2022-10-06T13:39:37.319Z,3.97
2022-10-06T13:41:47.323Z,5.17
2022-10-06T13:43:57.893Z,6.97
2022-10-06T13:46:09.506Z,4.17
2022-10-06T13:48:21.368Z,6.53
2022-10-06T13:50:30.270Z,6.40
2022-10-06T13:52:40.431Z,3.67
2022-10-06T13:54:51.351Z,5.23
2022-10-06T13:57:00.387Z,3.93
2022-10-06T13:59:33.016Z,7.67
2022-10-06T14:01:42.748Z,5.03
2022-10-06T14:04:13.305Z,5.47
2022-10-06T14:06:25.101Z,3.77
2022-10-06T14:08:34.220Z,2.40
2022-10-06T14:10:48.349Z,3.17
2022-10-06T14:12:57.187Z,5.17
2022-10-06T14:15:06.505Z,7.03
2022-10-06T14:17:23.400Z,4.40
2022-10-06T14:19:37.862Z,4.10
2022-10-06T14:21:46.827Z,3.57
2022-10-06T14:23:56.038Z,3.57
2022-10-06T14:26:04.697Z,3.17
2022-10-06T14:28:14.341Z,7.27
2022-10-06T14:30:23.304Z,4.53
2022-10-06T14:32:32.166Z,2.70
2022-10-06T14:34:42.981Z,7.70
2022-10-06T14:36:53.660Z,3.20
2022-10-06T14:39:02.733Z,7.70
2022-10-06T14:41:18.152Z,2.63
2022-10-06T14:43:27.523Z,4.30
2022-10-06T14:45:37.888Z,4.63
2022-10-06T14:47:46.597Z,4.83
2022-10-06T14:49:57.339Z,5.67
2022-10-06T14:52:09.346Z,6.63
2022-10-06T14:54:19.237Z,3.83
2022-10-06T14:56:29.028Z,4.93
2022-10-06T14:58:44.181Z,3.83
2022-10-06T15:00:52.950Z,4.33
2022-10-06T15:03:06.268Z,6.40
2022-10-06T15:05:17.102Z,6.13
2022-10-06T15:07:43.445Z,1.93
2022-10-06T15:09:52.913Z,6.00
2022-10-06T15:12:02.597Z,3.90
2022-10-06T15:14:12.251Z,3.97
2022-10-06T15:16:23.589Z,5.67
2022-10-06T15:18:32.731Z,2.67
2022-10-06T15:20:43.604Z,4.07
2022-10-06T15:22:52.631Z,4.00
2022-10-06T15:25:03.887Z,3.37
2022-10-06T15:27:30.212Z,5.43
2022-10-06T15:29:38.063Z,4.63
2022-10-06T15:31:48.373Z,4.40
2022-10-06T15:33:57.289Z,4.13
2022-10-06T15:36:16.471Z,2.07
2022-10-06T15:38:25.399Z,4.10
2022-10-06T15:40:34.249Z,3.37
2022-10-06T15:42:43.176Z,3.20
2022-10-06T15:44:51.805Z,2.67
2022-10-06T15:47:01.282Z,5.37
2022-10-06T15:49:11.514Z,12.13
2022-10-06T15:51:23.064Z,3.40
2022-10-06T15:53:31.981Z,4.30
2022-10-06T15:55:40.792Z,6.43
2022-10-06T15:57:49.918Z,6.57
2022-10-06T15:59:58.483Z,3.00
2022-10-06T16:02:10.028Z,5.70
2022-10-06T16:04:30.137Z,6.87
2022-10-06T16:06:50.076Z,3.97
2022-10-06T16:08:58.965Z,3.97
2022-10-06T16:11:07.857Z,5.40
2022-10-06T16:13:16.822Z,6.20
2022-10-06T16:15:25.597Z,10.83
2022-10-06T16:17:34.687Z,6.20
2022-10-06T16:19:44.121Z,6.90
2022-10-06T16:21:58.622Z,4.33
2022-10-06T16:24:07.978Z,5.67
2022-10-06T16:26:16.494Z,8.37
2022-10-06T16:28:25.265Z,7.13
2022-10-06T16:30:33.997Z,5.50
2022-10-06T16:32:44.039Z,6.20
2022-10-06T16:34:52.909Z,7.73
2022-10-06T16:37:03.482Z,8.43
2022-10-06T16:39:15.111Z,5.33
2022-10-06T16:41:24.392Z,7.93
2022-10-06T16:43:34.060Z,9.73
2022-10-06T16:45:42.558Z,9.60
2022-10-06T16:47:51.290Z,8.23
2022-10-06T16:49:59.858Z,5.80
2022-10-06T16:52:10.465Z,5.00
2022-10-06T16:54:19.025Z,6.87
2022-10-06T16:56:30.400Z,6.00
2022-10-06T16:58:40.641Z,8.63
2022-10-06T17:00:57.814Z,8.50
2022-10-06T17:03:06.464Z,6.83
2022-10-06T17:05:15.212Z,12.33
2022-10-06T17:07:25.044Z,7.50
2022-10-06T17:09:33.635Z,8.37
2022-10-06T17:11:43.055Z,7.87
2022-10-06T17:13:54.865Z,10.13
2022-10-06T17:16:05.190Z,9.23
2022-10-06T17:18:14.747Z,11.87
2022-10-06T17:20:23.553Z,6.57
2022-10-06T17:22:34.443Z,8.73
2022-10-06T17:24:43.284Z,11.20
2022-10-06T17:26:52.002Z,7.20
2022-10-06T17:29:01.826Z,7.43
2022-10-06T17:31:11.075Z,8.03
2022-10-06T17:33:19.897Z,6.57
2022-10-06T17:35:28.452Z,6.27
2022-10-06T17:37:40.462Z,5.27
2022-10-06T17:39:49.214Z,7.60
2022-10-06T17:41:58.260Z,8.73
2022-10-06T17:44:13.377Z,6.40
2022-10-06T17:46:24.433Z,7.27
2022-10-06T17:48:33.391Z,11.00
2022-10-06T17:50:42.528Z,8.17
2022-10-06T17:52:52.702Z,10.77
2022-10-06T17:55:01.619Z,11.00
2022-10-06T17:57:11.164Z,8.03
2022-10-06T17:59:21.860Z,7.73
2022-10-06T18:01:32.685Z,12.83
2022-10-06T18:03:42.998Z,7.40
2022-10-06T18:05:58.956Z,4.93
2022-10-06T18:08:10.497Z,8.70
2022-10-06T18:10:37.054Z,10.07
2022-10-06T18:12:47.305Z,12.40
2022-10-06T18:14:56.622Z,6.30
2022-10-06T18:17:06.221Z,9.23
2022-10-06T18:19:17.568Z,9.20
2022-10-06T18:21:27.906Z,8.87
2022-10-06T18:23:39.149Z,8.63
2022-10-06T18:25:47.780Z,8.63
2022-10-06T18:27:56.862Z,9.13
2022-10-06T18:30:06.228Z,9.50
2022-10-06T18:33:40.225Z,9.77
2022-10-06T18:37:13.643Z,7.37
2022-10-06T18:39:24.227Z,6.47
2022-10-06T18:41:33.315Z,7.37
2022-10-06T18:43:42.274Z,8.83
2022-10-06T18:46:08.805Z,7.10
2022-10-06T18:48:34.926Z,8.97
2022-10-06T18:50:44.222Z,9.37
2022-10-06T18:52:53.463Z,7.93
2022-10-06T18:55:04.025Z,7.97
2022-10-06T18:57:13.254Z,11.03
2022-10-06T18:59:23.715Z,10.00
2022-10-06T19:01:34.847Z,4.40
2022-10-06T19:03:44.474Z,6.63
2022-10-06T19:05:53.929Z,10.20
2022-10-06T19:08:03.052Z,7.60
2022-10-06T19:10:14.096Z,7.07
2022-10-06T19:12:23.195Z,8.93
2022-10-06T19:14:35.341Z,10.80
2022-10-06T19:16:44.751Z,7.27
2022-10-06T19:18:55.215Z,6.57
2022-10-06T19:21:08.685Z,4.87
2022-10-06T19:23:18.661Z,4.73
2022-10-06T19:25:29.663Z,8.00
2022-10-06T19:27:39.459Z,8.80
2022-10-06T19:29:54.660Z,8.70
2022-10-06T19:32:03.760Z,9.77
2022-10-06T19:34:16.783Z,10.50
2022-10-06T19:36:25.917Z,8.57
2022-10-06T19:38:39.293Z,6.67
2022-10-06T19:40:49.685Z,9.80
2022-10-06T19:42:57.250Z,9.37
2022-10-06T19:45:07.391Z,6.03
2022-10-06T19:47:16.817Z,6.83
2022-10-06T19:49:27.312Z,5.67
2022-10-06T19:51:38.577Z,7.50
2022-10-06T19:53:50.013Z,9.33
2022-10-06T19:56:05.483Z,6.77
2022-10-06T19:58:14.266Z,8.03
2022-10-06T20:00:22.976Z,7.17
2022-10-06T20:02:31.662Z,6.77
2022-10-06T20:04:40.628Z,7.77
2022-10-06T20:06:49.471Z,8.67
2022-10-06T20:08:58.795Z,8.87
2022-10-06T20:11:10.926Z,10.83
2022-10-06T20:13:19.850Z,10.10
2022-10-06T20:15:28.163Z,19.47
2022-10-06T20:17:36.720Z,7.67
2022-10-06T20:19:46.720Z,11.93
2022-10-06T20:21:55.933Z,9.27
2022-10-06T20:24:05.812Z,10.17
2022-10-06T20:26:17.336Z,8.43
2022-10-06T20:28:26.372Z,10.63
2022-10-06T20:30:37.924Z,11.70
2022-10-06T20:32:46.692Z,7.33
2022-10-06T20:34:55.037Z,6.13
2022-10-06T20:37:06.489Z,9.73
2022-10-06T20:39:35.111Z,10.17
2022-10-06T20:41:45.793Z,11.03
2022-10-06T20:43:56.721Z,12.57
2022-10-06T20:46:05.827Z,10.87
2022-10-06T20:48:15.475Z,10.87
2022-10-06T20:50:23.773Z,11.13
2022-10-06T20:52:34.426Z,8.40
2022-10-06T20:54:43.433Z,10.27
2022-10-06T20:56:54.826Z,10.40
2022-10-06T20:59:03.948Z,13.70
2022-10-06T21:01:13.598Z,12.37
2022-10-06T21:03:22.394Z,9.90
2022-10-06T21:05:31.064Z,11.73
2022-10-06T21:07:39.473Z,9.50
2022-10-06T21:09:51.987Z,11.63
2022-10-06T21:12:02.467Z,10.23
2022-10-06T21:14:12.249Z,12.83
2022-10-06T21:16:21.873Z,18.30
2022-10-06T21:18:30.842Z,13.83
2022-10-06T21:20:44.412Z,8.03
2022-10-06T21:22:54.184Z,11.37
2022-10-06T21:25:02.517Z,9.33
2022-10-06T21:27:13.159Z,9.13
2022-10-06T21:29:22.692Z,13.00
2022-10-06T21:31:31.606Z,14.27
2022-10-06T21:33:42.293Z,9.30
2022-10-06T21:35:59.318Z,10.30
2022-10-06T21:38:08.271Z,13.20
2022-10-06T21:40:17.125Z,11.47
2022-10-06T21:42:27.097Z,12.30
2022-10-06T21:44:36.054Z,12.17
2022-10-06T21:46:47.729Z,10.50
2022-10-06T21:48:57.222Z,17.97
2022-10-06T21:51:06.511Z,14.87
2022-10-06T21:53:15.291Z,10.00
2022-10-06T21:55:23.866Z,10.87
2022-10-06T21:57:34.104Z,10.77
2022-10-06T21:59:42.675Z,13.90
2022-10-06T22:01:51.381Z,11.67
2022-10-06T22:04:00.729Z,10.47
2022-10-06T22:06:11.668Z,13.03
2022-10-06T22:08:22.165Z,13.73
2022-10-06T22:10:31.167Z,16.67
2022-10-06T22:12:42.195Z,10.10
2022-10-06T22:14:50.684Z,13.80
2022-10-06T22:17:00.455Z,14.47
2022-10-06T22:19:09.992Z,16.20
2022-10-06T22:21:21.464Z,8.10
2022-10-06T22:23:30.556Z,8.30
2022-10-06T22:25:39.267Z,14.90
2022-10-06T22:27:53.432Z,14.93
2022-10-06T22:30:01.994Z,14.77
2022-10-06T22:32:10.723Z,10.43
2022-10-06T22:34:21.751Z,13.73
2022-10-06T22:36:30.824Z,15.63
2022-10-06T22:38:40.275Z,14.17
2022-10-06T22:40:49.172Z,12.33
2022-10-06T22:42:59.058Z,10.13
2022-10-06T22:45:08.739Z,10.67
2022-10-06T22:47:17.706Z,10.67
2022-10-06T22:49:28.598Z,10.93
2022-10-06T22:51:37.268Z,14.93
2022-10-06T22:53:46.005Z,11.27
2022-10-06T22:55:56.215Z,9.33
2022-10-06T22:58:06.707Z,15.40
2022-10-06T23:00:16.204Z,13.90
2022-10-06T23:02:24.764Z,15.20
2022-10-06T23:04:33.502Z,8.50
2022-10-06T23:06:42.056Z,11.53
2022-10-06T23:08:50.669Z,16.90
2022-10-06T23:11:06.142Z,8.93
2022-10-06T23:13:15.944Z,16.43
2022-10-06T23:15:25.239Z,8.03
2022-10-06T23:17:33.773Z,13.57
2022-10-06T23:19:43.134Z,12.47
2022-10-06T23:21:51.872Z,17.37
2022-10-06T23:24:01.384Z,21.37
2022-10-06T23:26:11.821Z,17.10
2022-10-06T23:28:22.294Z,10.50
2022-10-06T23:30:31.350Z,14.00
2022-10-06T23:32:40.806Z,15.33
2022-10-06T23:34:49.135Z,13.43
2022-10-06T23:36:57.373Z,16.63
2022-10-06T23:39:06.152Z,14.03
2022-10-06T23:41:15.243Z,15.63
2022-10-06T23:43:26.014Z,12.90
2022-10-06T23:45:36.423Z,12.90
2022-10-06T23:47:45.457Z,13.53
2022-10-06T23:49:54.304Z,16.50
2022-10-06T23:52:02.635Z,13.50
2022-10-06T23:54:11.096Z,14.77
2022-10-06T23:56:20.976Z,9.50
2022-10-06T23:58:31.451Z,12.80
